Miscou Island, Canada
Current Conditions -  °F | °C
As of 1:00 PM on Friday 28 Nov 2014 (Local Time) from CZBF Reporting Station
Snow Showers Snow Showers  
Wind Chill: 15°   Ceiling: 3000
Heat Index: 21°   Visibility: 10mi
Dew Point: 10°   Wind: 5mph
Humidity: 63%   Direction: 310°NW
Pressure: 29.99"   Gusts: NA
Location:  47.87°N, 64.59°W
Report Text: CZBF 281700Z 31004KT 280V360 10SM -SHSN BKN030 M06/M12 A2999 RMK SC7 SLP160
Loading
Personal Weather Stations






























Interactive Weather Map New forecast layout! Learn more

10-Day Weather Forecast

Advertisements
Track Severe Weather on mobile